sensor_id;sensor_type;location;lat;lon;timestamp;pressure;altitude;pressure_sealevel;temperature;humidity
40155;BME280;25875;48.202;16.334;2023-02-16T00:01:46;100330.03;;;0.81;68.79
40155;BME280;25875;48.202;16.334;2023-02-16T00:04:16;100367.44;;;0.99;68.85
40155;BME280;25875;48.202;16.334;2023-02-16T00:06:46;100331.78;;;0.78;68.87
40155;BME280;25875;48.202;16.334;2023-02-16T00:09:12;100372.66;;;1.02;68.81
40155;BME280;25875;48.202;16.334;2023-02-16T00:11:39;100383.09;;;1.03;68.87
40155;BME280;25875;48.202;16.334;2023-02-16T00:14:24;100377.00;;;1.03;68.81
40155;BME280;25875;48.202;16.334;2023-02-16T00:16:52;100368.31;;;1.05;68.61
40155;BME280;25875;48.202;16.334;2023-02-16T00:19:21;100373.53;;;1.04;68.57
40155;BME280;25875;48.202;16.334;2023-02-16T00:21:50;100226.56;;;0.21;68.46
40155;BME280;25875;48.202;16.334;2023-02-16T00:24:18;100335.25;;;0.86;68.29
40155;BME280;25875;48.202;16.334;2023-02-16T00:26:45;100375.25;;;1.05;68.32
40155;BME280;25875;48.202;16.334;2023-02-16T00:29:17;100367.44;;;1.02;68.57
40155;BME280;25875;48.202;16.334;2023-02-16T00:31:45;100369.16;;;1.03;68.44
40155;BME280;25875;48.202;16.334;2023-02-16T00:34:24;100201.34;;;0.03;69.15
40155;BME280;25875;48.202;16.334;2023-02-16T00:36:53;100383.97;;;1.02;68.68
40155;BME280;25875;48.202;16.334;2023-02-16T00:39:20;100248.28;;;0.34;68.60
40155;BME280;25875;48.202;16.334;2023-02-16T00:41:47;100372.66;;;0.97;68.83
40155;BME280;25875;48.202;16.334;2023-02-16T00:44:20;100370.91;;;0.94;69.10
40155;BME280;25875;48.202;16.334;2023-02-16T00:46:47;100372.66;;;0.92;69.09
40155;BME280;25875;48.202;16.334;2023-02-16T00:49:14;100365.69;;;0.91;69.28
40155;BME280;25875;48.202;16.334;2023-02-16T00:51:42;100169.19;;;-0.25;69.28
40155;BME280;25875;48.202;16.334;2023-02-16T00:54:10;100362.22;;;0.91;69.56
40155;BME280;25875;48.202;16.334;2023-02-16T00:56:37;100363.97;;;0.90;69.58
40155;BME280;25875;48.202;16.334;2023-02-16T00:59:07;100354.38;;;0.92;69.55
40155;BME280;25875;48.202;16.334;2023-02-16T01:01:34;100355.25;;;0.93;69.44
40155;BME280;25875;48.202;16.334;2023-02-16T01:04:04;100349.16;;;0.92;69.77
40155;BME280;25875;48.202;16.334;2023-02-16T01:06:31;100343.94;;;0.89;69.82
40155;BME280;25875;48.202;16.334;2023-02-16T01:09:18;100339.59;;;0.88;69.90
40155;BME280;25875;48.202;16.334;2023-02-16T01:12:04;100220.47;;;0.25;69.88
40155;BME280;25875;48.202;16.334;2023-02-16T01:14:34;100338.72;;;0.91;70.00
40155;BME280;25875;48.202;16.334;2023-02-16T01:17:00;100336.13;;;0.89;69.96
40155;BME280;25875;48.202;16.334;2023-02-16T01:19:27;100237.84;;;0.27;69.88
40155;BME280;25875;48.202;16.334;2023-02-16T01:21:54;100343.06;;;0.87;70.18
40155;BME280;25875;48.202;16.334;2023-02-16T01:24:22;100288.28;;;0.61;70.09
40155;BME280;25875;48.202;16.334;2023-02-16T01:26:49;100323.94;;;0.85;69.90
40155;BME280;25875;48.202;16.334;2023-02-16T01:29:17;100303.94;;;0.69;69.93
40155;BME280;25875;48.202;16.334;2023-02-16T01:31:45;100332.63;;;0.87;69.86
40155;BME280;25875;48.202;16.334;2023-02-16T01:34:12;100221.34;;;0.07;69.89
40155;BME280;25875;48.202;16.334;2023-02-16T01:36:41;100322.19;;;0.87;69.91
40155;BME280;25875;48.202;16.334;2023-02-16T01:39:11;100322.19;;;0.89;70.01
40155;BME280;25875;48.202;16.334;2023-02-16T01:41:58;100320.47;;;0.88;70.97
40155;BME280;25875;48.202;16.334;2023-02-16T01:44:28;100316.09;;;0.87;69.86
40155;BME280;25875;48.202;16.334;2023-02-16T01:47:00;100317.84;;;0.83;70.25
40155;BME280;25875;48.202;16.334;2023-02-16T01:49:29;100318.72;;;0.85;70.07
40155;BME280;25875;48.202;16.334;2023-02-16T01:52:02;100314.38;;;0.83;70.13
40155;BME280;25875;48.202;16.334;2023-02-16T01:54:35;100137.91;;;-0.19;70.07
40155;BME280;25875;48.202;16.334;2023-02-16T01:57:14;100316.09;;;0.81;70.00
40155;BME280;25875;48.202;16.334;2023-02-16T02:00:10;100305.66;;;0.78;70.60
40155;BME280;25875;48.202;16.334;2023-02-16T02:02:38;100339.59;;;0.78;69.93
40155;BME280;25875;48.202;16.334;2023-02-16T02:08:05;100298.72;;;0.74;70.02
40155;BME280;25875;48.202;16.334;2023-02-16T02:10:40;100187.44;;;-0.00;70.03
40155;BME280;25875;48.202;16.334;2023-02-16T02:13:15;100285.66;;;0.72;70.05
40155;BME280;25875;48.202;16.334;2023-02-16T02:15:43;100295.25;;;0.73;69.95
40155;BME280;25875;48.202;16.334;2023-02-16T02:18:10;100303.94;;;0.77;69.84
40155;BME280;25875;48.202;16.334;2023-02-16T02:20:48;100302.19;;;0.76;70.43
40155;BME280;25875;48.202;16.334;2023-02-16T02:23:47;100295.25;;;0.76;70.80
40155;BME280;25875;48.202;16.334;2023-02-16T02:32:17;100301.31;;;0.81;70.84
40155;BME280;25875;48.202;16.334;2023-02-16T02:35:03;100300.44;;;0.84;71.67
40155;BME280;25875;48.202;16.334;2023-02-16T02:37:36;100298.72;;;0.78;72.97
40155;BME280;25875;48.202;16.334;2023-02-16T02:40:10;100290.88;;;0.80;71.39
40155;BME280;25875;48.202;16.334;2023-02-16T02:42:48;100296.97;;;0.82;71.89
40155;BME280;25875;48.202;16.334;2023-02-16T02:45:22;100308.28;;;0.85;71.72
40155;BME280;25875;48.202;16.334;2023-02-16T02:47:49;100305.66;;;0.88;71.20
40155;BME280;25875;48.202;16.334;2023-02-16T02:50:45;100306.53;;;0.90;72.92
40155;BME280;25875;48.202;16.334;2023-02-16T02:53:28;100303.91;;;0.92;71.46
40155;BME280;25875;48.202;16.334;2023-02-16T02:55:57;100302.19;;;0.94;71.59
40155;BME280;25875;48.202;16.334;2023-02-16T02:58:44;100303.91;;;0.95;71.43
40155;BME280;25875;48.202;16.334;2023-02-16T03:01:32;100304.78;;;0.96;71.62
40155;BME280;25875;48.202;16.334;2023-02-16T03:04:01;100298.69;;;0.98;71.59
40155;BME280;25875;48.202;16.334;2023-02-16T03:06:33;100297.81;;;0.99;71.60
40155;BME280;25875;48.202;16.334;2023-02-16T03:09:05;100195.28;;;0.25;71.73
40155;BME280;25875;48.202;16.334;2023-02-16T03:11:33;100215.25;;;0.52;71.47
40155;BME280;25875;48.202;16.334;2023-02-16T03:14:20;100298.69;;;1.00;71.82
40155;BME280;25875;48.202;16.334;2023-02-16T03:16:52;100302.16;;;1.00;71.75
40155;BME280;25875;48.202;16.334;2023-02-16T03:19:38;100300.44;;;1.01;71.60
40155;BME280;25875;48.202;16.334;2023-02-16T03:22:24;100290.84;;;1.00;71.92
40155;BME280;25875;48.202;16.334;2023-02-16T03:25:09;100292.59;;;0.94;71.95
40155;BME280;25875;48.202;16.334;2023-02-16T03:27:54;100291.75;;;0.91;71.76
40155;BME280;25875;48.202;16.334;2023-02-16T03:30:40;100298.72;;;0.87;71.65
40155;BME280;25875;48.202;16.334;2023-02-16T03:33:09;100297.84;;;0.87;71.53
40155;BME280;25875;48.202;16.334;2023-02-16T03:35:37;100297.84;;;0.85;71.51
40155;BME280;25875;48.202;16.334;2023-02-16T03:38:04;100301.31;;;0.83;71.53
40155;BME280;25875;48.202;16.334;2023-02-16T03:40:32;100151.81;;;-0.05;71.45
40155;BME280;25875;48.202;16.334;2023-02-16T03:43:01;100263.06;;;0.60;71.30
40155;BME280;25875;48.202;16.334;2023-02-16T03:45:30;100296.09;;;0.78;71.49
40155;BME280;25875;48.202;16.334;2023-02-16T03:47:59;100289.16;;;0.77;71.34
40155;BME280;25875;48.202;16.334;2023-02-16T03:50:28;100292.63;;;0.78;71.35
40155;BME280;25875;48.202;16.334;2023-02-16T03:52:56;100294.38;;;0.76;70.96
40155;BME280;25875;48.202;16.334;2023-02-16T03:55:32;100293.50;;;0.74;70.90
40155;BME280;25875;48.202;16.334;2023-02-16T03:57:59;100191.78;;;0.05;70.96
40155;BME280;25875;48.202;16.334;2023-02-16T04:00:26;100296.09;;;0.72;71.00
40155;BME280;25875;48.202;16.334;2023-02-16T04:02:53;100302.19;;;0.71;71.04
40155;BME280;25875;48.202;16.334;2023-02-16T04:05:20;100271.75;;;0.53;70.92
40155;BME280;25875;48.202;16.334;2023-02-16T04:07:48;100296.09;;;0.69;71.01
40155;BME280;25875;48.202;16.334;2023-02-16T04:10:15;100303.94;;;0.69;70.83
40155;BME280;25875;48.202;16.334;2023-02-16T04:12:43;100323.94;;;0.66;70.99
40155;BME280;25875;48.202;16.334;2023-02-16T04:15:10;100291.75;;;0.64;70.79
40155;BME280;25875;48.202;16.334;2023-02-16T04:17:37;100296.97;;;0.64;70.70
40155;BME280;25875;48.202;16.334;2023-02-16T04:20:05;100289.16;;;0.62;70.90
40155;BME280;25875;48.202;16.334;2023-02-16T04:22:33;100216.13;;;0.18;70.83
40155;BME280;25875;48.202;16.334;2023-02-16T04:25:02;100284.81;;;0.61;70.83
40155;BME280;25875;48.202;16.334;2023-02-16T04:27:28;100292.63;;;0.59;70.88
40155;BME280;25875;48.202;16.334;2023-02-16T04:29:55;100284.81;;;0.56;71.15
40155;BME280;25875;48.202;16.334;2023-02-16T04:32:22;100285.69;;;0.55;71.05
40155;BME280;25875;48.202;16.334;2023-02-16T04:34:49;100283.94;;;0.57;71.00
40155;BME280;25875;48.202;16.334;2023-02-16T04:37:15;100293.50;;;0.60;70.95
40155;BME280;25875;48.202;16.334;2023-02-16T04:39:42;100289.16;;;0.59;71.21
40155;BME280;25875;48.202;16.334;2023-02-16T04:42:10;100286.53;;;0.57;71.00
40155;BME280;25875;48.202;16.334;2023-02-16T04:44:37;100285.69;;;0.60;71.25
40155;BME280;25875;48.202;16.334;2023-02-16T04:47:04;100283.06;;;0.61;70.97
40155;BME280;25875;48.202;16.334;2023-02-16T04:49:30;100287.41;;;0.61;71.11
40155;BME280;25875;48.202;16.334;2023-02-16T04:51:57;100286.53;;;0.60;71.01
40155;BME280;25875;48.202;16.334;2023-02-16T04:54:25;100287.41;;;0.61;71.21
40155;BME280;25875;48.202;16.334;2023-02-16T04:56:52;100288.28;;;0.61;71.06
40155;BME280;25875;48.202;16.334;2023-02-16T04:59:20;100282.19;;;0.63;71.07
40155;BME280;25875;48.202;16.334;2023-02-16T05:01:47;100283.94;;;0.59;70.95
40155;BME280;25875;48.202;16.334;2023-02-16T05:04:14;100283.94;;;0.56;71.14
40155;BME280;25875;48.202;16.334;2023-02-16T05:06:41;100282.19;;;0.58;71.00
40155;BME280;25875;48.202;16.334;2023-02-16T05:09:08;100277.84;;;0.57;70.97
40155;BME280;25875;48.202;16.334;2023-02-16T05:11:35;100280.47;;;0.52;71.11
40155;BME280;25875;48.202;16.334;2023-02-16T05:14:22;100280.47;;;0.49;71.43
40155;BME280;25875;48.202;16.334;2023-02-16T05:17:08;100277.84;;;0.46;71.43
40155;BME280;25875;48.202;16.334;2023-02-16T05:19:35;100280.47;;;0.48;71.45
40155;BME280;25875;48.202;16.334;2023-02-16T05:22:02;100275.25;;;0.49;71.32
40155;BME280;25875;48.202;16.334;2023-02-16T05:24:29;100274.38;;;0.49;71.05
40155;BME280;25875;48.202;16.334;2023-02-16T05:26:56;100272.63;;;0.51;71.11
40155;BME280;25875;48.202;16.334;2023-02-16T05:29:24;100273.50;;;0.48;71.33
40155;BME280;25875;48.202;16.334;2023-02-16T05:31:51;100269.16;;;0.47;71.15
40155;BME280;25875;48.202;16.334;2023-02-16T05:34:18;100275.25;;;0.45;71.32
40155;BME280;25875;48.202;16.334;2023-02-16T05:36:44;100282.19;;;0.47;71.19
40155;BME280;25875;48.202;16.334;2023-02-16T05:39:11;100280.47;;;0.48;71.33
40155;BME280;25875;48.202;16.334;2023-02-16T05:41:38;100288.28;;;0.48;71.31
40155;BME280;25875;48.202;16.334;2023-02-16T05:44:06;100288.28;;;0.46;70.99
40155;BME280;25875;48.202;16.334;2023-02-16T05:46:36;100286.53;;;0.47;71.20
40155;BME280;25875;48.202;16.334;2023-02-16T05:49:04;100255.25;;;0.28;71.25
40155;BME280;25875;48.202;16.334;2023-02-16T05:51:31;100253.50;;;0.27;71.15
40155;BME280;25875;48.202;16.334;2023-02-16T05:53:58;100291.75;;;0.48;71.11
40155;BME280;25875;48.202;16.334;2023-02-16T05:56:25;100129.22;;;-0.45;71.17
40155;BME280;25875;48.202;16.334;2023-02-16T05:58:52;100290.03;;;0.44;71.38
40155;BME280;25875;48.202;16.334;2023-02-16T06:01:19;100289.16;;;0.44;71.25
40155;BME280;25875;48.202;16.334;2023-02-16T06:03:48;100290.88;;;0.45;71.27
40155;BME280;25875;48.202;16.334;2023-02-16T06:06:14;100242.19;;;0.21;71.43
40155;BME280;25875;48.202;16.334;2023-02-16T06:08:41;100292.63;;;0.43;71.34
40155;BME280;25875;48.202;16.334;2023-02-16T06:11:08;100291.75;;;0.42;71.45
40155;BME280;25875;48.202;16.334;2023-02-16T06:13:55;100294.38;;;0.41;71.51
40155;BME280;25875;48.202;16.334;2023-02-16T06:16:24;100287.41;;;0.40;71.39
40155;BME280;25875;48.202;16.334;2023-02-16T06:18:53;100296.97;;;0.41;71.51
40155;BME280;25875;48.202;16.334;2023-02-16T06:21:20;100292.63;;;0.41;71.50
40155;BME280;25875;48.202;16.334;2023-02-16T06:23:48;100198.72;;;-0.18;71.37
40155;BME280;25875;48.202;16.334;2023-02-16T06:26:15;100238.72;;;0.08;71.35
40155;BME280;25875;48.202;16.334;2023-02-16T06:28:42;100185.69;;;-0.20;71.53
40155;BME280;25875;48.202;16.334;2023-02-16T06:31:09;100256.97;;;0.25;71.42
40155;BME280;25875;48.202;16.334;2023-02-16T06:33:36;100296.09;;;0.46;71.41
40155;BME280;25875;48.202;16.334;2023-02-16T06:36:06;100196.97;;;-0.16;71.31
40155;BME280;25875;48.202;16.334;2023-02-16T06:38:33;100300.44;;;0.49;71.36
40155;BME280;25875;48.202;16.334;2023-02-16T06:40:59;100300.44;;;0.49;71.31
40155;BME280;25875;48.202;16.334;2023-02-16T06:43:26;100308.28;;;0.49;71.46
40155;BME280;25875;48.202;16.334;2023-02-16T06:45:53;100304.81;;;0.50;71.45
40155;BME280;25875;48.202;16.334;2023-02-16T06:48:20;100300.47;;;0.53;71.23
40155;BME280;25875;48.202;16.334;2023-02-16T06:50:47;100311.75;;;0.52;71.39
40155;BME280;25875;48.202;16.334;2023-02-16T06:53:15;100313.50;;;0.55;71.48
40155;BME280;25875;48.202;16.334;2023-02-16T06:55:42;100316.09;;;0.58;71.14
40155;BME280;25875;48.202;16.334;2023-02-16T06:58:09;100322.19;;;0.61;71.16
40155;BME280;25875;48.202;16.334;2023-02-16T07:00:36;100309.16;;;0.66;71.11
40155;BME280;25875;48.202;16.334;2023-02-16T07:03:03;100319.59;;;0.69;71.04
40155;BME280;25875;48.202;16.334;2023-02-16T07:05:30;100310.03;;;0.68;71.11
40155;BME280;25875;48.202;16.334;2023-02-16T07:07:57;100297.84;;;0.66;70.82
40155;BME280;25875;48.202;16.334;2023-02-16T07:10:25;100313.50;;;0.81;70.94
40155;BME280;25875;48.202;16.334;2023-02-16T07:12:53;100316.09;;;0.84;70.64
40155;BME280;25875;48.202;16.334;2023-02-16T07:15:21;100280.44;;;0.71;70.61
40155;BME280;25875;48.202;16.334;2023-02-16T07:17:48;100312.63;;;0.94;70.70
40155;BME280;25875;48.202;16.334;2023-02-16T07:20:15;100312.63;;;0.99;70.50
40155;BME280;25875;48.202;16.334;2023-02-16T07:22:42;100273.47;;;0.82;70.37
40155;BME280;25875;48.202;16.334;2023-02-16T07:25:09;100304.75;;;1.11;70.41
40155;BME280;25875;48.202;16.334;2023-02-16T07:27:38;100307.34;;;1.18;70.27
40155;BME280;25875;48.202;16.334;2023-02-16T07:30:05;100311.69;;;1.25;70.19
40155;BME280;25875;48.202;16.334;2023-02-16T07:32:33;100326.47;;;1.33;69.89
40155;BME280;25875;48.202;16.334;2023-02-16T07:35:00;100307.28;;;1.43;69.90
40155;BME280;25875;48.202;16.334;2023-02-16T07:37:26;100307.25;;;1.53;69.93
40155;BME280;25875;48.202;16.334;2023-02-16T07:39:53;100298.53;;;1.64;69.60
40155;BME280;25875;48.202;16.334;2023-02-16T07:42:20;100298.50;;;1.76;69.17
40155;BME280;25875;48.202;16.334;2023-02-16T07:44:48;100304.53;;;1.90;68.95
40155;BME280;25875;48.202;16.334;2023-02-16T07:47:15;100303.59;;;2.00;68.51
40155;BME280;25875;48.202;16.334;2023-02-16T07:49:42;100297.47;;;2.04;68.34
40155;BME280;25875;48.202;16.334;2023-02-16T07:52:08;100292.22;;;2.09;68.30
40155;BME280;25875;48.202;16.334;2023-02-16T07:54:35;100289.56;;;2.15;68.14
40155;BME280;25875;48.202;16.334;2023-02-16T07:57:02;100077.69;;;0.97;67.88
40155;BME280;25875;48.202;16.334;2023-02-16T07:59:29;100297.28;;;2.35;67.87
40155;BME280;25875;48.202;16.334;2023-02-16T08:01:58;100286.72;;;2.47;67.81
40155;BME280;25875;48.202;16.334;2023-02-16T08:04:25;100288.41;;;2.57;67.67
40155;BME280;25875;48.202;16.334;2023-02-16T08:06:52;100288.31;;;2.69;67.22
40155;BME280;25875;48.202;16.334;2023-02-16T08:09:18;100285.63;;;2.77;67.00
40155;BME280;25875;48.202;16.334;2023-02-16T08:11:45;100193.56;;;2.28;66.94
40155;BME280;25875;48.202;16.334;2023-02-16T08:14:13;100280.22;;;2.95;66.74
40155;BME280;25875;48.202;16.334;2023-02-16T08:16:40;100287.09;;;3.05;66.36
40155;BME280;25875;48.202;16.334;2023-02-16T08:19:08;100246.13;;;2.98;66.21
40155;BME280;25875;48.202;16.334;2023-02-16T08:21:37;100284.16;;;3.34;66.13
40155;BME280;25875;48.202;16.334;2023-02-16T08:24:06;100286.63;;;3.48;65.91
40155;BME280;25875;48.202;16.334;2023-02-16T08:26:35;100292.59;;;3.61;65.26
40155;BME280;25875;48.202;16.334;2023-02-16T08:29:03;100293.31;;;3.73;65.06
40155;BME280;25875;48.202;16.334;2023-02-16T08:31:32;100267.94;;;3.75;64.97
40155;BME280;25875;48.202;16.334;2023-02-16T08:34:02;100229.47;;;3.77;64.84
40155;BME280;25875;48.202;16.334;2023-02-16T08:36:32;100241.31;;;4.04;63.92
40155;BME280;25875;48.202;16.334;2023-02-16T08:39:00;100283.47;;;4.54;63.22
40155;BME280;25875;48.202;16.334;2023-02-16T08:41:30;100289.53;;;4.57;63.02
40155;BME280;25875;48.202;16.334;2023-02-16T08:43:58;100285.94;;;4.63;63.11
40155;BME280;25875;48.202;16.334;2023-02-16T08:46:25;100247.72;;;4.45;62.86
40155;BME280;25875;48.202;16.334;2023-02-16T08:48:54;100246.72;;;4.54;62.77
40155;BME280;25875;48.202;16.334;2023-02-16T08:51:22;100277.75;;;4.81;62.76
40155;BME280;25875;48.202;16.334;2023-02-16T08:53:51;100282.91;;;4.87;62.30
40155;BME280;25875;48.202;16.334;2023-02-16T08:56:18;100283.72;;;4.92;62.39
40155;BME280;25875;48.202;16.334;2023-02-16T08:58:45;100291.38;;;5.04;62.91
40155;BME280;25875;48.202;16.334;2023-02-16T09:01:12;100289.34;;;5.20;62.63
40155;BME280;25875;48.202;16.334;2023-02-16T09:03:42;100283.03;;;5.30;62.10
40155;BME280;25875;48.202;16.334;2023-02-16T09:06:10;100289.78;;;5.43;61.82
40155;BME280;25875;48.202;16.334;2023-02-16T09:08:38;100292.97;;;5.59;61.52
40155;BME280;25875;48.202;16.334;2023-02-16T09:11:08;100284.78;;;5.74;60.60
40155;BME280;25875;48.202;16.334;2023-02-16T09:13:37;100288.97;;;5.83;60.63
40155;BME280;25875;48.202;16.334;2023-02-16T09:16:07;100283.66;;;5.86;60.32
40155;BME280;25875;48.202;16.334;2023-02-16T09:18:35;100213.72;;;5.34;60.49
40155;BME280;25875;48.202;16.334;2023-02-16T09:21:03;100277.41;;;5.90;60.19
40155;BME280;25875;48.202;16.334;2023-02-16T09:23:31;100287.50;;;6.10;60.23
40155;BME280;25875;48.202;16.334;2023-02-16T09:26:00;100223.78;;;5.96;59.80
40155;BME280;25875;48.202;16.334;2023-02-16T09:28:28;100281.03;;;6.62;59.65
40155;BME280;25875;48.202;16.334;2023-02-16T09:30:55;100240.34;;;6.73;59.22
40155;BME280;25875;48.202;16.334;2023-02-16T09:33:23;100267.44;;;7.14;58.53
40155;BME280;25875;48.202;16.334;2023-02-16T09:35:50;100265.41;;;7.24;57.68
40155;BME280;25875;48.202;16.334;2023-02-16T09:38:17;100266.06;;;7.32;57.94
40155;BME280;25875;48.202;16.334;2023-02-16T09:40:45;100092.00;;;6.39;57.92
40155;BME280;25875;48.202;16.334;2023-02-16T09:43:19;100256.28;;;7.68;56.44
40155;BME280;25875;48.202;16.334;2023-02-16T09:45:56;100258.34;;;7.88;56.30
40155;BME280;25875;48.202;16.334;2023-02-16T09:48:33;100253.59;;;7.99;54.62
40155;BME280;25875;48.202;16.334;2023-02-16T09:51:02;100191.91;;;7.74;56.31
40155;BME280;25875;48.202;16.334;2023-02-16T09:53:35;100247.31;;;8.31;54.53
40155;BME280;25875;48.202;16.334;2023-02-16T09:56:12;100251.19;;;8.47;54.40
40155;BME280;25875;48.202;16.334;2023-02-16T09:58:44;100215.31;;;8.40;55.04
40155;BME280;25875;48.202;16.334;2023-02-16T10:01:19;100255.78;;;8.68;53.26
40155;BME280;25875;48.202;16.334;2023-02-16T10:03:53;100251.16;;;8.75;53.69
40155;BME280;25875;48.202;16.334;2023-02-16T10:06:30;100238.75;;;8.77;53.15
40155;BME280;25875;48.202;16.334;2023-02-16T10:09:03;100249.25;;;8.79;54.37
40155;BME280;25875;48.202;16.334;2023-02-16T10:11:35;100239.56;;;8.79;54.03
40155;BME280;25875;48.202;16.334;2023-02-16T10:14:10;100234.59;;;8.70;54.85
40155;BME280;25875;48.202;16.334;2023-02-16T10:16:44;100230.91;;;8.74;53.17
40155;BME280;25875;48.202;16.334;2023-02-16T10:19:19;100104.28;;;7.90;53.04
40155;BME280;25875;48.202;16.334;2023-02-16T10:21:50;100230.97;;;8.73;54.06
40155;BME280;25875;48.202;16.334;2023-02-16T10:24:19;100218.78;;;8.68;54.82
40155;BME280;25875;48.202;16.334;2023-02-16T10:26:49;100200.91;;;8.50;54.10
40155;BME280;25875;48.202;16.334;2023-02-16T10:29:19;100135.31;;;8.10;54.44
40155;BME280;25875;48.202;16.334;2023-02-16T10:31:57;100227.22;;;8.53;52.84
40155;BME280;25875;48.202;16.334;2023-02-16T10:34:38;100295.25;;;8.47;52.58
40155;BME280;25875;48.202;16.334;2023-02-16T10:37:19;100201.34;;;8.37;53.40
40155;BME280;25875;48.202;16.334;2023-02-16T10:39:55;100224.22;;;8.64;53.73
40155;BME280;25875;48.202;16.334;2023-02-16T10:42:30;100212.47;;;8.73;54.06
40155;BME280;25875;48.202;16.334;2023-02-16T10:45:05;100213.22;;;8.76;52.75
40155;BME280;25875;48.202;16.334;2023-02-16T10:47:44;100217.56;;;8.79;53.36
40155;BME280;25875;48.202;16.334;2023-02-16T10:50:19;100211.41;;;8.78;52.70
40155;BME280;25875;48.202;16.334;2023-02-16T10:52:48;100206.75;;;8.85;53.62
40155;BME280;25875;48.202;16.334;2023-02-16T10:55:16;100206.59;;;8.89;53.70
40155;BME280;25875;48.202;16.334;2023-02-16T10:57:49;100119.09;;;8.47;52.19
40155;BME280;25875;48.202;16.334;2023-02-16T11:00:23;100158.44;;;8.81;53.17
40155;BME280;25875;48.202;16.334;2023-02-16T11:02:54;100100.72;;;8.44;52.80
40155;BME280;25875;48.202;16.334;2023-02-16T11:05:31;100158.81;;;8.95;51.67
40155;BME280;25875;48.202;16.334;2023-02-16T11:08:00;100180.84;;;9.19;52.91
40155;BME280;25875;48.202;16.334;2023-02-16T11:10:39;100180.16;;;9.14;50.55
40155;BME280;25875;48.202;16.334;2023-02-16T11:13:06;100174.75;;;9.17;52.85
40155;BME280;25875;48.202;16.334;2023-02-16T11:15:42;100171.00;;;9.24;52.76
40155;BME280;25875;48.202;16.334;2023-02-16T11:18:34;100169.28;;;9.23;49.85
40155;BME280;25875;48.202;16.334;2023-02-16T11:21:03;100135.94;;;9.18;52.51
40155;BME280;25875;48.202;16.334;2023-02-16T11:23:31;100084.38;;;8.83;52.29
40155;BME280;25875;48.202;16.334;2023-02-16T11:26:01;100142.38;;;9.11;51.76
40155;BME280;25875;48.202;16.334;2023-02-16T11:28:32;100166.75;;;9.20;52.26
40155;BME280;25875;48.202;16.334;2023-02-16T11:31:16;100125.81;;;9.06;49.70
40155;BME280;25875;48.202;16.334;2023-02-16T11:33:56;100114.16;;;9.11;49.85
40155;BME280;25875;48.202;16.334;2023-02-16T11:36:28;100084.78;;;8.95;51.63
40155;BME280;25875;48.202;16.334;2023-02-16T11:39:02;100124.31;;;9.23;51.28
40155;BME280;25875;48.202;16.334;2023-02-16T11:41:33;100152.53;;;9.48;51.49
40155;BME280;25875;48.202;16.334;2023-02-16T11:44:01;100143.44;;;9.55;51.94
40155;BME280;25875;48.202;16.334;2023-02-16T11:46:38;100103.41;;;9.41;49.92
40155;BME280;25875;48.202;16.334;2023-02-16T11:49:29;100133.53;;;9.60;48.72
40155;BME280;25875;48.202;16.334;2023-02-16T11:51:56;100128.34;;;9.57;51.89
40155;BME280;25875;48.202;16.334;2023-02-16T11:54:23;100125.66;;;9.58;51.62
40155;BME280;25875;48.202;16.334;2023-02-16T11:57:03;100135.06;;;9.66;48.87
40155;BME280;25875;48.202;16.334;2023-02-16T11:59:34;100052.19;;;9.18;50.64
40155;BME280;25875;48.202;16.334;2023-02-16T12:05:22;100120.75;;;9.93;48.73
40155;BME280;25875;48.202;16.334;2023-02-16T12:08:01;100114.56;;;10.14;49.31
40155;BME280;25875;48.202;16.334;2023-02-16T12:10:39;100100.88;;;10.25;49.93
40155;BME280;25875;48.202;16.334;2023-02-16T12:13:16;100102.84;;;10.20;49.01
40155;BME280;25875;48.202;16.334;2023-02-16T12:15:48;100099.88;;;10.27;49.95
40155;BME280;25875;48.202;16.334;2023-02-16T12:18:26;100100.13;;;10.21;49.26
40155;BME280;25875;48.202;16.334;2023-02-16T12:21:05;100018.00;;;9.59;49.07
40155;BME280;25875;48.202;16.334;2023-02-16T12:23:40;100099.66;;;10.12;49.96
40155;BME280;25875;48.202;16.334;2023-02-16T12:26:19;100096.09;;;10.13;48.98
40155;BME280;25875;48.202;16.334;2023-02-16T12:28:58;100082.84;;;10.13;49.02
40155;BME280;25875;48.202;16.334;2023-02-16T12:31:33;100080.66;;;10.02;49.41
40155;BME280;25875;48.202;16.334;2023-02-16T12:34:08;100071.97;;;9.99;48.42
40155;BME280;25875;48.202;16.334;2023-02-16T12:36:59;100038.63;;;9.73;48.23
40155;BME280;25875;48.202;16.334;2023-02-16T12:39:36;100069.63;;;9.91;48.89
40155;BME280;25875;48.202;16.334;2023-02-16T12:42:17;100056.19;;;9.95;48.68
40155;BME280;25875;48.202;16.334;2023-02-16T12:44:49;100064.34;;;9.91;50.38
40155;BME280;25875;48.202;16.334;2023-02-16T12:47:22;100057.94;;;9.97;50.37
40155;BME280;25875;48.202;16.334;2023-02-16T12:49:52;100042.78;;;9.78;50.46
40155;BME280;25875;48.202;16.334;2023-02-16T12:52:30;100053.06;;;9.86;49.03
40155;BME280;25875;48.202;16.334;2023-02-16T12:55:05;100046.25;;;9.80;50.06
40155;BME280;25875;48.202;16.334;2023-02-16T12:57:41;100046.25;;;9.80;50.33
40155;BME280;25875;48.202;16.334;2023-02-16T13:00:18;100046.97;;;9.84;49.72
40155;BME280;25875;48.202;16.334;2023-02-16T13:02:49;100054.91;;;9.84;50.58
40155;BME280;25875;48.202;16.334;2023-02-16T13:05:23;100026.47;;;9.89;50.10
40155;BME280;25875;48.202;16.334;2023-02-16T13:07:55;100033.00;;;9.80;49.56
40155;BME280;25875;48.202;16.334;2023-02-16T13:10:29;100039.16;;;9.81;49.93
40155;BME280;25875;48.202;16.334;2023-02-16T13:13:02;100018.03;;;9.79;50.08
40155;BME280;25875;48.202;16.334;2023-02-16T13:15:33;100028.69;;;9.78;50.66
40155;BME280;25875;48.202;16.334;2023-02-16T13:18:04;100018.03;;;9.79;50.31
40155;BME280;25875;48.202;16.334;2023-02-16T13:20:38;100031.09;;;9.84;50.27
40155;BME280;25875;48.202;16.334;2023-02-16T13:23:26;100021.38;;;9.84;48.95